sensor_id;sensor_type;location;lat;lon;timestamp;P1;durP1;ratioP1;P2;durP2;ratioP2
53674;SDS011;39574;50.534;8.500;2023-12-28T00:01:10;14.4;;;8.4;;
53674;SDS011;39574;50.534;8.500;2023-12-28T00:06:08;14.1;;;8.3;;
53674;SDS011;39574;50.534;8.500;2023-12-28T00:11:07;14.7;;;8.4;;
53674;SDS011;39574;50.534;8.500;2023-12-28T00:16:06;14.7;;;8.3;;
53674;SDS011;39574;50.534;8.500;2023-12-28T00:21:09;14.8;;;8.6;;
53674;SDS011;39574;50.534;8.500;2023-12-28T00:26:03;17.1;;;10.3;;
53674;SDS011;39574;50.534;8.500;2023-12-28T00:31:03;18.1;;;10.2;;
53674;SDS011;39574;50.534;8.500;2023-12-28T00:36:01;18.6;;;9.7;;
53674;SDS011;39574;50.534;8.500;2023-12-28T00:45:58;18.0;;;9.4;;
53674;SDS011;39574;50.534;8.500;2023-12-28T00:50:57;17.3;;;8.9;;
53674;SDS011;39574;50.534;8.500;2023-12-28T00:55:56;15.3;;;8.2;;
53674;SDS011;39574;50.534;8.500;2023-12-28T01:00:55;14.3;;;7.7;;
53674;SDS011;39574;50.534;8.500;2023-12-28T01:05:58;13.1;;;7.3;;
53674;SDS011;39574;50.534;8.500;2023-12-28T01:10:52;14.4;;;7.7;;
53674;SDS011;39574;50.534;8.500;2023-12-28T01:15:55;14.0;;;7.7;;
53674;SDS011;39574;50.534;8.500;2023-12-28T01:20:50;13.8;;;7.5;;
53674;SDS011;39574;50.534;8.500;2023-12-28T01:25:48;12.6;;;7.2;;
53674;SDS011;39574;50.534;8.500;2023-12-28T01:30:47;11.9;;;6.8;;
53674;SDS011;39574;50.534;8.500;2023-12-28T01:35:46;12.7;;;6.8;;
53674;SDS011;39574;50.534;8.500;2023-12-28T01:40:45;12.5;;;6.8;;
53674;SDS011;39574;50.534;8.500;2023-12-28T01:45:43;11.9;;;6.5;;
53674;SDS011;39574;50.534;8.500;2023-12-28T01:50:43;12.8;;;7.0;;
53674;SDS011;39574;50.534;8.500;2023-12-28T01:55:41;12.4;;;6.8;;
53674;SDS011;39574;50.534;8.500;2023-12-28T02:00:40;12.1;;;6.7;;
53674;SDS011;39574;50.534;8.500;2023-12-28T02:05:40;10.5;;;5.6;;
53674;SDS011;39574;50.534;8.500;2023-12-28T02:10:38;8.8;;;4.6;;
53674;SDS011;39574;50.534;8.500;2023-12-28T02:15:36;8.5;;;4.5;;
53674;SDS011;39574;50.534;8.500;2023-12-28T02:20:36;9.1;;;4.7;;
53674;SDS011;39574;50.534;8.500;2023-12-28T02:25:34;9.4;;;4.8;;
53674;SDS011;39574;50.534;8.500;2023-12-28T02:30:33;9.5;;;4.8;;
53674;SDS011;39574;50.534;8.500;2023-12-28T02:35:32;9.0;;;4.3;;
53674;SDS011;39574;50.534;8.500;2023-12-28T02:40:31;8.6;;;4.1;;
53674;SDS011;39574;50.534;8.500;2023-12-28T02:45:30;8.1;;;3.9;;
53674;SDS011;39574;50.534;8.500;2023-12-28T02:50:28;7.3;;;3.6;;
53674;SDS011;39574;50.534;8.500;2023-12-28T02:55:27;7.1;;;3.5;;
53674;SDS011;39574;50.534;8.500;2023-12-28T03:00:27;8.2;;;3.6;;
53674;SDS011;39574;50.534;8.500;2023-12-28T03:05:25;8.0;;;3.4;;
53674;SDS011;39574;50.534;8.500;2023-12-28T03:10:24;7.7;;;3.5;;
53674;SDS011;39574;50.534;8.500;2023-12-28T03:15:23;7.3;;;3.5;;
53674;SDS011;39574;50.534;8.500;2023-12-28T03:20:22;7.8;;;3.5;;
53674;SDS011;39574;50.534;8.500;2023-12-28T03:25:21;7.8;;;3.5;;
53674;SDS011;39574;50.534;8.500;2023-12-28T03:30:20;7.5;;;3.4;;
53674;SDS011;39574;50.534;8.500;2023-12-28T03:35:18;7.3;;;3.3;;
53674;SDS011;39574;50.534;8.500;2023-12-28T03:40:17;7.0;;;3.4;;
53674;SDS011;39574;50.534;8.500;2023-12-28T03:45:16;6.5;;;3.2;;
53674;SDS011;39574;50.534;8.500;2023-12-28T03:50:18;7.0;;;3.2;;
53674;SDS011;39574;50.534;8.500;2023-12-28T03:55:14;7.3;;;3.1;;
53674;SDS011;39574;50.534;8.500;2023-12-28T04:00:18;6.9;;;3.1;;
53674;SDS011;39574;50.534;8.500;2023-12-28T04:05:14;7.7;;;3.6;;
53674;SDS011;39574;50.534;8.500;2023-12-28T04:10:11;7.3;;;3.5;;
53674;SDS011;39574;50.534;8.500;2023-12-28T04:15:10;6.8;;;3.4;;
53674;SDS011;39574;50.534;8.500;2023-12-28T04:25:08;6.5;;;3.2;;
53674;SDS011;39574;50.534;8.500;2023-12-28T04:30:06;6.0;;;3.1;;
53674;SDS011;39574;50.534;8.500;2023-12-28T04:35:06;6.1;;;3.2;;
53674;SDS011;39574;50.534;8.500;2023-12-28T04:40:04;6.2;;;3.1;;
53674;SDS011;39574;50.534;8.500;2023-12-28T04:45:04;6.0;;;3.2;;
53674;SDS011;39574;50.534;8.500;2023-12-28T04:50:02;6.3;;;3.2;;
53674;SDS011;39574;50.534;8.500;2023-12-28T04:55:01;6.0;;;3.2;;
53674;SDS011;39574;50.534;8.500;2023-12-28T05:00:00;6.0;;;3.1;;
53674;SDS011;39574;50.534;8.500;2023-12-28T05:04:59;6.6;;;3.1;;
53674;SDS011;39574;50.534;8.500;2023-12-28T05:09:58;6.4;;;3.1;;
53674;SDS011;39574;50.534;8.500;2023-12-28T05:14:57;6.3;;;3.0;;
53674;SDS011;39574;50.534;8.500;2023-12-28T05:19:56;6.0;;;2.9;;
53674;SDS011;39574;50.534;8.500;2023-12-28T05:29:54;5.5;;;2.8;;
53674;SDS011;39574;50.534;8.500;2023-12-28T05:34:53;5.4;;;2.8;;
53674;SDS011;39574;50.534;8.500;2023-12-28T05:39:51;5.6;;;2.8;;
53674;SDS011;39574;50.534;8.500;2023-12-28T05:44:55;5.9;;;2.8;;
53674;SDS011;39574;50.534;8.500;2023-12-28T05:49:49;6.5;;;2.9;;
53674;SDS011;39574;50.534;8.500;2023-12-28T05:54:49;6.8;;;2.8;;
53674;SDS011;39574;50.534;8.500;2023-12-28T05:59:48;6.5;;;2.8;;
53674;SDS011;39574;50.534;8.500;2023-12-28T06:04:47;6.3;;;2.8;;
53674;SDS011;39574;50.534;8.500;2023-12-28T06:14:44;6.2;;;2.6;;
53674;SDS011;39574;50.534;8.500;2023-12-28T06:24:42;6.4;;;2.7;;
53674;SDS011;39574;50.534;8.500;2023-12-28T06:29:41;6.4;;;2.7;;
53674;SDS011;39574;50.534;8.500;2023-12-28T06:34:40;6.5;;;2.8;;
53674;SDS011;39574;50.534;8.500;2023-12-28T06:44:39;6.9;;;2.7;;
53674;SDS011;39574;50.534;8.500;2023-12-28T06:49:41;6.5;;;2.6;;
53674;SDS011;39574;50.534;8.500;2023-12-28T06:54:36;6.2;;;2.7;;
53674;SDS011;39574;50.534;8.500;2023-12-28T06:59:35;6.3;;;2.7;;
53674;SDS011;39574;50.534;8.500;2023-12-28T07:04:34;6.3;;;2.7;;
53674;SDS011;39574;50.534;8.500;2023-12-28T07:09:33;6.1;;;2.7;;
53674;SDS011;39574;50.534;8.500;2023-12-28T07:14:32;6.4;;;2.7;;
53674;SDS011;39574;50.534;8.500;2023-12-28T07:19:31;7.4;;;3.1;;
53674;SDS011;39574;50.534;8.500;2023-12-28T07:24:29;8.0;;;3.2;;
53674;SDS011;39574;50.534;8.500;2023-12-28T07:29:29;7.4;;;3.1;;
53674;SDS011;39574;50.534;8.500;2023-12-28T07:34:32;7.0;;;3.0;;
53674;SDS011;39574;50.534;8.500;2023-12-28T07:39:27;6.9;;;2.9;;
53674;SDS011;39574;50.534;8.500;2023-12-28T07:49:25;6.9;;;2.9;;
53674;SDS011;39574;50.534;8.500;2023-12-28T07:54:24;6.8;;;2.9;;
53674;SDS011;39574;50.534;8.500;2023-12-28T07:59:23;6.6;;;2.9;;
53674;SDS011;39574;50.534;8.500;2023-12-28T08:04:22;6.9;;;3.0;;
53674;SDS011;39574;50.534;8.500;2023-12-28T08:09:21;7.2;;;3.2;;
53674;SDS011;39574;50.534;8.500;2023-12-28T08:14:20;6.5;;;3.1;;
53674;SDS011;39574;50.534;8.500;2023-12-28T08:24:18;6.8;;;3.0;;
53674;SDS011;39574;50.534;8.500;2023-12-28T08:29:17;6.5;;;3.0;;
53674;SDS011;39574;50.534;8.500;2023-12-28T08:34:16;6.4;;;2.8;;
53674;SDS011;39574;50.534;8.500;2023-12-28T08:39:15;6.0;;;2.6;;
53674;SDS011;39574;50.534;8.500;2023-12-28T08:44:14;6.7;;;3.1;;
53674;SDS011;39574;50.534;8.500;2023-12-28T08:49:13;7.3;;;3.0;;
53674;SDS011;39574;50.534;8.500;2023-12-28T08:59:11;7.9;;;3.1;;
53674;SDS011;39574;50.534;8.500;2023-12-28T09:04:10;7.6;;;3.0;;
53674;SDS011;39574;50.534;8.500;2023-12-28T09:09:09;7.0;;;3.0;;
53674;SDS011;39574;50.534;8.500;2023-12-28T09:14:07;6.4;;;3.0;;
53674;SDS011;39574;50.534;8.500;2023-12-28T09:19:08;5.9;;;2.9;;
53674;SDS011;39574;50.534;8.500;2023-12-28T09:24:05;6.8;;;3.1;;
53674;SDS011;39574;50.534;8.500;2023-12-28T09:29:04;7.1;;;3.2;;
53674;SDS011;39574;50.534;8.500;2023-12-28T09:34:03;7.1;;;3.2;;
53674;SDS011;39574;50.534;8.500;2023-12-28T09:39:02;7.3;;;3.1;;
53674;SDS011;39574;50.534;8.500;2023-12-28T09:44:04;9.3;;;3.9;;
53674;SDS011;39574;50.534;8.500;2023-12-28T09:49:03;8.1;;;3.4;;
53674;SDS011;39574;50.534;8.500;2023-12-28T09:54:00;8.1;;;3.4;;
53674;SDS011;39574;50.534;8.500;2023-12-28T09:58:59;6.8;;;3.2;;
53674;SDS011;39574;50.534;8.500;2023-12-28T10:03:58;6.4;;;2.8;;
53674;SDS011;39574;50.534;8.500;2023-12-28T10:08:57;6.8;;;2.7;;
53674;SDS011;39574;50.534;8.500;2023-12-28T10:13:58;6.5;;;2.6;;
53674;SDS011;39574;50.534;8.500;2023-12-28T10:18:55;7.4;;;2.5;;
53674;SDS011;39574;50.534;8.500;2023-12-28T10:23:55;7.8;;;2.5;;
53674;SDS011;39574;50.534;8.500;2023-12-28T10:28:59;7.4;;;2.5;;
53674;SDS011;39574;50.534;8.500;2023-12-28T10:33:52;7.3;;;2.5;;
53674;SDS011;39574;50.534;8.500;2023-12-28T10:38:51;6.9;;;2.5;;
53674;SDS011;39574;50.534;8.500;2023-12-28T10:43:52;6.3;;;2.6;;
53674;SDS011;39574;50.534;8.500;2023-12-28T10:48:50;7.0;;;2.6;;
53674;SDS011;39574;50.534;8.500;2023-12-28T10:53:49;6.9;;;2.5;;
53674;SDS011;39574;50.534;8.500;2023-12-28T10:58:49;6.8;;;2.4;;
53674;SDS011;39574;50.534;8.500;2023-12-28T11:03:47;7.2;;;2.5;;
53674;SDS011;39574;50.534;8.500;2023-12-28T11:08:45;6.9;;;2.4;;
53674;SDS011;39574;50.534;8.500;2023-12-28T11:13:45;7.6;;;2.5;;
53674;SDS011;39574;50.534;8.500;2023-12-28T11:18:44;9.0;;;2.7;;
53674;SDS011;39574;50.534;8.500;2023-12-28T11:23:43;9.3;;;2.6;;
53674;SDS011;39574;50.534;8.500;2023-12-28T11:28:42;8.4;;;2.4;;
53674;SDS011;39574;50.534;8.500;2023-12-28T11:33:45;9.5;;;3.4;;
53674;SDS011;39574;50.534;8.500;2023-12-28T11:53:37;8.4;;;3.1;;
53674;SDS011;39574;50.534;8.500;2023-12-28T11:58:36;8.9;;;2.9;;
53674;SDS011;39574;50.534;8.500;2023-12-28T12:03:34;8.2;;;2.6;;
53674;SDS011;39574;50.534;8.500;2023-12-28T12:08:34;7.4;;;2.4;;
53674;SDS011;39574;50.534;8.500;2023-12-28T12:13:32;7.4;;;2.3;;
53674;SDS011;39574;50.534;8.500;2023-12-28T12:18:32;7.0;;;2.2;;
53674;SDS011;39574;50.534;8.500;2023-12-28T12:23:31;8.2;;;2.3;;
53674;SDS011;39574;50.534;8.500;2023-12-28T12:28:31;8.2;;;2.5;;
53674;SDS011;39574;50.534;8.500;2023-12-28T12:33:29;7.9;;;2.5;;
53674;SDS011;39574;50.534;8.500;2023-12-28T12:38:28;8.1;;;2.9;;
53674;SDS011;39574;50.534;8.500;2023-12-28T12:43:27;7.4;;;2.8;;
53674;SDS011;39574;50.534;8.500;2023-12-28T12:48:26;7.2;;;2.5;;
53674;SDS011;39574;50.534;8.500;2023-12-28T12:53:24;7.6;;;2.5;;
53674;SDS011;39574;50.534;8.500;2023-12-28T12:58:24;7.2;;;2.2;;
53674;SDS011;39574;50.534;8.500;2023-12-28T13:03:27;6.5;;;2.2;;
53674;SDS011;39574;50.534;8.500;2023-12-28T13:08:21;6.9;;;2.2;;
53674;SDS011;39574;50.534;8.500;2023-12-28T13:13:21;7.7;;;2.4;;
53674;SDS011;39574;50.534;8.500;2023-12-28T13:18:20;7.4;;;2.6;;
53674;SDS011;39574;50.534;8.500;2023-12-28T13:28:18;7.1;;;2.7;;
53674;SDS011;39574;50.534;8.500;2023-12-28T13:33:17;6.7;;;2.5;;
53674;SDS011;39574;50.534;8.500;2023-12-28T13:38:17;7.6;;;2.4;;
53674;SDS011;39574;50.534;8.500;2023-12-28T13:43:16;7.7;;;2.5;;
53674;SDS011;39574;50.534;8.500;2023-12-28T13:48:15;8.4;;;2.5;;
53674;SDS011;39574;50.534;8.500;2023-12-28T13:53:14;7.8;;;2.4;;
53674;SDS011;39574;50.534;8.500;2023-12-28T13:58:13;7.3;;;2.3;;
53674;SDS011;39574;50.534;8.500;2023-12-28T14:03:13;8.5;;;2.2;;
53674;SDS011;39574;50.534;8.500;2023-12-28T14:08:11;8.6;;;2.2;;
53674;SDS011;39574;50.534;8.500;2023-12-28T14:13:10;8.8;;;2.4;;
53674;SDS011;39574;50.534;8.500;2023-12-28T14:18:09;7.8;;;2.4;;
53674;SDS011;39574;50.534;8.500;2023-12-28T14:23:09;6.9;;;2.2;;
53674;SDS011;39574;50.534;8.500;2023-12-28T14:33:08;6.4;;;2.1;;
53674;SDS011;39574;50.534;8.500;2023-12-28T14:38:06;9.8;;;4.0;;
53674;SDS011;39574;50.534;8.500;2023-12-28T14:43:05;9.2;;;3.7;;
53674;SDS011;39574;50.534;8.500;2023-12-28T14:48:05;8.2;;;3.3;;
53674;SDS011;39574;50.534;8.500;2023-12-28T14:53:04;8.3;;;2.8;;
53674;SDS011;39574;50.534;8.500;2023-12-28T14:58:02;7.3;;;2.4;;
53674;SDS011;39574;50.534;8.500;2023-12-28T15:03:01;7.5;;;2.4;;
53674;SDS011;39574;50.534;8.500;2023-12-28T15:08:00;6.5;;;2.3;;
53674;SDS011;39574;50.534;8.500;2023-12-28T15:13:00;6.2;;;2.2;;
53674;SDS011;39574;50.534;8.500;2023-12-28T15:17:59;6.4;;;2.3;;
53674;SDS011;39574;50.534;8.500;2023-12-28T15:22:58;6.7;;;2.4;;
53674;SDS011;39574;50.534;8.500;2023-12-28T15:27:56;7.8;;;2.6;;
53674;SDS011;39574;50.534;8.500;2023-12-28T15:32:56;13.3;;;5.2;;
53674;SDS011;39574;50.534;8.500;2023-12-28T15:37:59;11.6;;;4.3;;
53674;SDS011;39574;50.534;8.500;2023-12-28T15:57:51;9.8;;;3.7;;
53674;SDS011;39574;50.534;8.500;2023-12-28T16:02:50;8.2;;;3.0;;
53674;SDS011;39574;50.534;8.500;2023-12-28T16:07:49;6.4;;;2.4;;
53674;SDS011;39574;50.534;8.500;2023-12-28T16:12:48;6.3;;;2.4;;
53674;SDS011;39574;50.534;8.500;2023-12-28T16:17:48;7.5;;;2.5;;
53674;SDS011;39574;50.534;8.500;2023-12-28T16:27:45;7.2;;;2.6;;
53674;SDS011;39574;50.534;8.500;2023-12-28T16:32:48;6.5;;;2.4;;
53674;SDS011;39574;50.534;8.500;2023-12-28T16:37:43;5.7;;;2.4;;
53674;SDS011;39574;50.534;8.500;2023-12-28T16:42:42;5.9;;;2.7;;
53674;SDS011;39574;50.534;8.500;2023-12-28T16:47:41;6.5;;;3.0;;
53674;SDS011;39574;50.534;8.500;2023-12-28T16:52:40;7.8;;;3.0;;
53674;SDS011;39574;50.534;8.500;2023-12-28T16:57:38;7.5;;;2.7;;
53674;SDS011;39574;50.534;8.500;2023-12-28T17:07:37;6.7;;;2.5;;
53674;SDS011;39574;50.534;8.500;2023-12-28T17:12:36;5.8;;;2.1;;
53674;SDS011;39574;50.534;8.500;2023-12-28T17:17:35;5.6;;;2.1;;
53674;SDS011;39574;50.534;8.500;2023-12-28T17:22:34;5.6;;;2.1;;
53674;SDS011;39574;50.534;8.500;2023-12-28T17:27:38;5.3;;;2.0;;
53674;SDS011;39574;50.534;8.500;2023-12-28T17:32:36;5.1;;;2.0;;
53674;SDS011;39574;50.534;8.500;2023-12-28T17:37:30;5.1;;;2.2;;
53674;SDS011;39574;50.534;8.500;2023-12-28T17:42:30;5.3;;;2.2;;
53674;SDS011;39574;50.534;8.500;2023-12-28T17:47:31;5.1;;;2.2;;
53674;SDS011;39574;50.534;8.500;2023-12-28T17:52:32;5.3;;;2.2;;
53674;SDS011;39574;50.534;8.500;2023-12-28T18:02:25;6.5;;;2.9;;
53674;SDS011;39574;50.534;8.500;2023-12-28T18:07:24;7.2;;;3.0;;
53674;SDS011;39574;50.534;8.500;2023-12-28T18:12:23;6.6;;;2.7;;
53674;SDS011;39574;50.534;8.500;2023-12-28T18:17:25;6.6;;;2.7;;
53674;SDS011;39574;50.534;8.500;2023-12-28T18:22:22;6.4;;;2.6;;
53674;SDS011;39574;50.534;8.500;2023-12-28T18:27:20;6.4;;;2.8;;
53674;SDS011;39574;50.534;8.500;2023-12-28T18:37:18;6.5;;;3.1;;
53674;SDS011;39574;50.534;8.500;2023-12-28T18:42:17;6.0;;;3.0;;
53674;SDS011;39574;50.534;8.500;2023-12-28T18:47:20;6.2;;;3.0;;
53674;SDS011;39574;50.534;8.500;2023-12-28T18:52:15;6.5;;;2.8;;
53674;SDS011;39574;50.534;8.500;2023-12-28T18:57:14;6.9;;;2.7;;
53674;SDS011;39574;50.534;8.500;2023-12-28T19:02:13;6.5;;;2.8;;
53674;SDS011;39574;50.534;8.500;2023-12-28T19:07:12;6.8;;;2.8;;
53674;SDS011;39574;50.534;8.500;2023-12-28T19:12:11;8.0;;;3.1;;
53674;SDS011;39574;50.534;8.500;2023-12-28T19:17:10;9.1;;;3.0;;
53674;SDS011;39574;50.534;8.500;2023-12-28T19:22:10;8.4;;;2.8;;
53674;SDS011;39574;50.534;8.500;2023-12-28T19:27:08;7.8;;;2.7;;
53674;SDS011;39574;50.534;8.500;2023-12-28T19:32:07;7.4;;;2.7;;
53674;SDS011;39574;50.534;8.500;2023-12-28T19:37:06;6.4;;;2.8;;
53674;SDS011;39574;50.534;8.500;2023-12-28T19:42:05;5.8;;;2.5;;
53674;SDS011;39574;50.534;8.500;2023-12-28T19:47:04;6.6;;;2.6;;
53674;SDS011;39574;50.534;8.500;2023-12-28T19:52:07;6.0;;;2.5;;
53674;SDS011;39574;50.534;8.500;2023-12-28T19:57:02;7.0;;;2.8;;
53674;SDS011;39574;50.534;8.500;2023-12-28T20:02:01;6.9;;;2.8;;
53674;SDS011;39574;50.534;8.500;2023-12-28T20:07:00;6.6;;;2.7;;
53674;SDS011;39574;50.534;8.500;2023-12-28T20:11:59;6.3;;;2.8;;
53674;SDS011;39574;50.534;8.500;2023-12-28T20:21:57;5.6;;;2.5;;
53674;SDS011;39574;50.534;8.500;2023-12-28T20:26:56;5.6;;;2.5;;
53674;SDS011;39574;50.534;8.500;2023-12-28T20:31:55;6.5;;;2.7;;
53674;SDS011;39574;50.534;8.500;2023-12-28T20:36:54;6.2;;;2.6;;
53674;SDS011;39574;50.534;8.500;2023-12-28T20:41:54;6.5;;;2.6;;
53674;SDS011;39574;50.534;8.500;2023-12-28T20:46:52;5.9;;;2.4;;
53674;SDS011;39574;50.534;8.500;2023-12-28T20:51:51;5.2;;;2.3;;
53674;SDS011;39574;50.534;8.500;2023-12-28T20:56:50;5.2;;;2.2;;
53674;SDS011;39574;50.534;8.500;2023-12-28T21:01:49;5.5;;;2.3;;
53674;SDS011;39574;50.534;8.500;2023-12-28T21:06:48;5.7;;;2.3;;
53674;SDS011;39574;50.534;8.500;2023-12-28T21:11:47;5.6;;;2.4;;
53674;SDS011;39574;50.534;8.500;2023-12-28T21:16:45;5.6;;;2.4;;
53674;SDS011;39574;50.534;8.500;2023-12-28T21:21:45;5.0;;;2.3;;
53674;SDS011;39574;50.534;8.500;2023-12-28T21:26:44;5.2;;;2.3;;
53674;SDS011;39574;50.534;8.500;2023-12-28T21:31:43;5.3;;;2.4;;
53674;SDS011;39574;50.534;8.500;2023-12-28T21:36:42;5.5;;;2.6;;
53674;SDS011;39574;50.534;8.500;2023-12-28T21:41:41;5.7;;;2.7;;
53674;SDS011;39574;50.534;8.500;2023-12-28T21:46:39;5.7;;;2.6;;
53674;SDS011;39574;50.534;8.500;2023-12-28T21:51:38;5.4;;;2.6;;
53674;SDS011;39574;50.534;8.500;2023-12-28T21:56:37;5.0;;;2.4;;
53674;SDS011;39574;50.534;8.500;2023-12-28T22:01:36;5.0;;;2.3;;
53674;SDS011;39574;50.534;8.500;2023-12-28T22:06:35;5.4;;;2.6;;
53674;SDS011;39574;50.534;8.500;2023-12-28T22:11:34;5.5;;;2.5;;
53674;SDS011;39574;50.534;8.500;2023-12-28T22:16:33;5.1;;;2.4;;
53674;SDS011;39574;50.534;8.500;2023-12-28T22:21:32;4.9;;;2.3;;
53674;SDS011;39574;50.534;8.500;2023-12-28T22:26:31;4.8;;;2.2;;
53674;SDS011;39574;50.534;8.500;2023-12-28T22:31:30;5.0;;;2.2;;
53674;SDS011;39574;50.534;8.500;2023-12-28T22:36:29;6.3;;;2.3;;
53674;SDS011;39574;50.534;8.500;2023-12-28T22:41:28;5.7;;;2.2;;
53674;SDS011;39574;50.534;8.500;2023-12-28T22:46:27;5.2;;;2.1;;
53674;SDS011;39574;50.534;8.500;2023-12-28T22:56:25;4.8;;;2.0;;
53674;SDS011;39574;50.534;8.500;2023-12-28T23:01:24;4.6;;;1.9;;
53674;SDS011;39574;50.534;8.500;2023-12-28T23:06:22;5.0;;;1.9;;
53674;SDS011;39574;50.534;8.500;2023-12-28T23:11:22;4.8;;;1.9;;
53674;SDS011;39574;50.534;8.500;2023-12-28T23:16:24;4.6;;;1.9;;
53674;SDS011;39574;50.534;8.500;2023-12-28T23:21:20;4.4;;;1.9;;
53674;SDS011;39574;50.534;8.500;2023-12-28T23:31:18;4.2;;;1.9;;
53674;SDS011;39574;50.534;8.500;2023-12-28T23:36:17;4.4;;;1.9;;
53674;SDS011;39574;50.534;8.500;2023-12-28T23:41:15;4.9;;;2.0;;
53674;SDS011;39574;50.534;8.500;2023-12-28T23:46:14;4.7;;;1.9;;
53674;SDS011;39574;50.534;8.500;2023-12-28T23:51:13;5.0;;;1.8;;
53674;SDS011;39574;50.534;8.500;2023-12-28T23:56:16;5.0;;;1.7;;
